Time;durP1;ratioP1;P1;durP2;ratioP2;P2;SDS_P1;SDS_P2;PMS_P1;PMS_P2;Temp;Humidity;BMP_temperature;BMP_pressure;BME280_temperature;BME280_humidity;BME280_pressure;Samples;Min_cycle;Max_cycle;Signal;HPM_P1;HPM_P2
2022/11/16 00:02:16;;;;;;;8.03;5.27;;;12.10;24.20;;;;;;5011017;28;20175;-70
2022/11/16 00:04:42;;;;;;;7.60;5.57;;;12.20;24.60;;;;;;5020932;28;20175;-71
2022/11/16 00:07:07;;;;;;;8.80;5.77;;;12.20;18.30;;;;;;5027478;28;20629;-71
2022/11/16 00:09:33;;;;;;;8.23;5.50;;;12.20;18.70;;;;;;5022694;28;20193;-69
2022/11/16 00:12:02;;;;;;;10.00;5.90;;;12.30;18.40;;;;;;5023060;28;20174;-71
2022/11/16 00:14:30;;;;;;;9.20;6.20;;;12.30;16.30;;;;;;5009767;28;20438;-71
2022/11/16 00:16:56;;;;;;;8.80;6.50;;;12.30;17.00;;;;;;5011621;28;20515;-71
2022/11/16 00:19:22;;;;;;;8.90;5.80;;;12.30;15.80;;;;;;5010157;28;20437;-70
2022/11/16 00:21:48;;;;;;;11.83;5.90;;;12.30;17.50;;;;;;5019179;28;20224;-71
2022/11/16 00:24:16;;;;;;;11.60;5.77;;;12.20;17.10;;;;;;5022598;28;20449;-71
2022/11/16 00:26:42;;;;;;;7.90;5.70;;;12.20;17.90;;;;;;5013374;28;20194;-70
2022/11/16 00:29:19;;;;;;;10.53;5.90;;;12.10;19.20;;;;;;5019261;28;20791;-69
2022/11/16 00:31:46;;;;;;;7.50;6.03;;;12.10;22.00;;;;;;5022316;28;20577;-71
2022/11/16 00:34:11;;;;;;;9.53;6.37;;;12.10;23.30;;;;;;5023149;28;21128;-71
2022/11/16 00:36:37;;;;;;;7.93;5.70;;;12.10;24.50;;;;;;5013417;28;20454;-70
2022/11/16 00:39:03;;;;;;;10.10;6.23;;;12.10;23.80;;;;;;5018068;28;20545;-71
2022/11/16 00:41:28;;;;;;;7.77;6.30;;;12.00;25.40;;;;;;5009968;28;20490;-71
2022/11/16 00:43:54;;;;;;;15.13;7.03;;;13.90;32.80;;;;;;5015218;28;20267;-71
2022/11/16 00:46:20;;;;;;;9.90;7.03;;;11.90;32.90;;;;;;4998778;28;20559;-71
2022/11/16 00:48:45;;;;;;;8.10;6.07;;;11.80;39.30;;;;;;5017186;28;20178;-71
2022/11/16 00:51:11;;;;;;;12.70;7.00;;;11.90;31.90;;;;;;5018422;28;20467;-71
2022/11/16 00:53:36;;;;;;;8.27;6.17;;;11.90;37.30;;;;;;5018384;28;20210;-71
2022/11/16 00:56:03;;;;;;;10.90;6.27;;;11.90;34.20;;;;;;5018691;28;20260;-71
2022/11/16 00:58:28;;;;;;;9.87;6.53;;;12.00;36.30;;;;;;5008981;28;20180;-71
2022/11/16 01:00:54;;;;;;;11.77;7.20;;;12.00;37.40;;;;;;5008750;28;21039;-69
2022/11/16 01:03:19;;;;;;;10.60;7.00;;;12.00;39.50;;;;;;5015151;28;20297;-71
2022/11/16 01:05:45;;;;;;;9.60;6.33;;;12.00;36.40;;;;;;5018611;28;20224;-69
2022/11/16 01:08:11;;;;;;;11.53;7.60;;;12.00;37.30;;;;;;5016801;28;20173;-71
2022/11/16 01:10:39;;;;;;;12.93;7.50;;;12.10;31.70;;;;;;5028256;28;20192;-71
2022/11/16 01:13:04;;;;;;;11.33;7.03;;;12.00;29.00;;;;;;5012288;28;20231;-70
2022/11/16 01:15:30;;;;;;;9.03;7.40;;;12.00;35.60;;;;;;5000466;28;20469;-70
2022/11/16 01:17:55;;;;;;;11.33;6.70;;;11.90;36.90;;;;;;5018107;28;20205;-71
2022/11/16 01:20:25;;;;;;;10.17;7.10;;;11.90;39.40;;;;;;5012402;28;20187;-71
2022/11/16 01:22:50;;;;;;;10.17;6.73;;;11.90;39.50;;;;;;5019779;28;20186;-71
2022/11/16 01:25:16;;;;;;;10.80;7.57;;;11.90;39.50;;;;;;5020003;28;20444;-71
2022/11/16 01:27:42;;;;;;;8.40;6.40;;;11.90;39.50;;;;;;5020706;28;20212;-71
2022/11/16 01:30:11;;;;;;;13.57;7.13;;;12.00;39.60;;;;;;5021224;28;20190;-71
2022/11/16 01:32:37;;;;;;;9.83;7.17;;;12.00;39.50;;;;;;5010979;28;20806;-71
2022/11/16 01:35:03;;;;;;;11.60;7.70;;;11.90;39.60;;;;;;5016115;28;20511;-71
2022/11/16 01:37:29;;;;;;;20.13;8.33;;;11.90;39.50;;;;;;5021695;28;20472;-70
2022/11/16 01:39:55;;;;;;;10.80;7.10;;;11.90;39.50;;;;;;5018745;28;20453;-71
2022/11/16 01:42:23;;;;;;;10.53;7.00;;;11.90;37.40;;;;;;5008946;28;20238;-71
2022/11/16 01:44:48;;;;;;;8.97;6.83;;;11.00;38.80;;;;;;4997725;28;20170;-71
2022/11/16 01:47:15;;;;;;;11.93;7.30;;;11.90;39.50;;;;;;5010022;28;20426;-71
2022/11/16 01:49:51;;;;;;;10.43;7.30;;;11.70;39.40;;;;;;5020815;28;20182;-71
2022/11/16 01:52:21;;;;;;;10.20;7.17;;;11.60;37.20;;;;;;5015672;28;20433;-72
2022/11/16 01:54:50;;;;;;;15.90;8.03;;;11.60;39.40;;;;;;5001223;28;20410;-70
2022/11/16 01:57:37;;;;;;;11.07;7.90;;;11.50;39.20;;;;;;4999442;28;20527;-69
2022/11/16 02:00:07;;;;;;;15.67;9.13;;;11.50;45.00;;;;;;5001255;28;20432;-71
2022/11/16 02:02:32;;;;;;;11.83;8.40;;;11.40;42.80;;;;;;5002572;28;20453;-70
2022/11/16 02:04:59;;;;;;;10.73;7.97;;;11.40;46.40;;;;;;5012858;28;20419;-71
2022/11/16 02:11:00;;;;;;;19.13;8.20;;;11.40;50.40;;;;;;5017097;28;20485;-69
2022/11/16 02:13:45;;;;;;;12.23;7.67;;;11.40;50.20;;;;;;5006844;28;20591;-72
2022/11/16 02:16:39;;;;;;;10.97;7.43;;;11.40;52.70;;;;;;5007822;28;20464;-70
2022/11/16 02:19:07;;;;;;;10.27;7.20;;;11.40;56.10;;;;;;5017229;28;20957;-70
2022/11/16 02:21:33;;;;;;;9.63;7.17;;;11.40;55.40;;;;;;5020264;28;20500;-71
2022/11/16 02:23:58;;;;;;;11.57;7.23;;;11.40;51.20;;;;;;5012755;28;20585;-71
2022/11/16 02:26:47;;;;;;;10.00;7.27;;;11.40;56.30;;;;;;5019647;28;20239;-71
2022/11/16 02:29:31;;;;;;;13.03;7.73;;;11.40;54.50;;;;;;5013128;28;20189;-70
2022/11/16 02:32:23;;;;;;;10.53;7.17;;;11.40;53.30;;;;;;5024574;28;20428;-71
2022/11/16 02:35:04;;;;;;;10.87;7.47;;;11.40;55.90;;;;;;5017891;28;20423;-70
2022/11/16 02:37:34;;;;;;;13.53;7.73;;;11.40;56.10;;;;;;5021378;28;20465;-71
2022/11/16 02:40:05;;;;;;;13.87;7.30;;;11.40;55.40;;;;;;5016632;28;20425;-71
2022/11/16 02:42:59;;;;;;;9.07;7.00;;;11.40;55.60;;;;;;5006769;28;20504;-71
2022/11/16 02:45:29;;;;;;;10.93;7.60;;;11.40;55.20;;;;;;5000715;28;20511;-70
2022/11/16 02:48:04;;;;;;;13.03;7.53;;;11.40;58.00;;;;;;5015356;28;20429;-70
2022/11/16 02:50:31;;;;;;;12.60;7.30;;;11.40;59.00;;;;;;5007542;28;20469;-70
2022/11/16 02:52:57;;;;;;;11.33;7.67;;;11.30;57.10;;;;;;5020246;28;20438;-71
2022/11/16 02:55:24;;;;;;;11.00;7.50;;;11.40;61.40;;;;;;5017304;28;20799;-71
2022/11/16 02:57:57;;;;;;;12.33;7.83;;;11.40;58.40;;;;;;5017387;28;20730;-71
2022/11/16 03:00:36;;;;;;;13.70;7.23;;;11.40;62.50;;;;;;5012966;28;20428;-70
2022/11/16 03:03:13;;;;;;;16.13;8.30;;;11.30;63.30;;;;;;5000982;28;20510;-72
2022/11/16 03:06:10;;;;;;;11.47;7.93;;;11.30;70.20;;;;;;5008800;28;20467;-70
2022/11/16 03:08:41;;;;;;;17.87;9.30;;;11.40;70.00;;;;;;5011913;28;20436;-71
2022/11/16 03:14:00;;;;;;;15.70;8.90;;;11.50;69.20;;;;;;5003731;28;20470;-70
2022/11/16 03:16:31;;;;;;;13.40;9.37;;;11.40;71.50;;;;;;5009114;28;20512;-70
2022/11/16 03:18:59;;;;;;;17.30;10.07;;;11.40;73.40;;;;;;5015903;28;20437;-70
2022/11/16 03:21:29;;;;;;;13.10;8.60;;;11.40;74.10;;;;;;5016908;28;20501;-71
2022/11/16 03:23:55;;;;;;;13.00;8.57;;;11.40;71.30;;;;;;5008117;28;20461;-70
2022/11/16 03:26:25;;;;;;;14.50;8.50;;;11.30;76.60;;;;;;5008736;28;20817;-70
2022/11/16 03:28:55;;;;;;;12.17;8.40;;;11.20;79.40;;;;;;5020961;28;20455;-70
2022/11/16 03:31:34;;;;;;;12.50;8.70;;;11.20;83.80;;;;;;5025291;28;20416;-70
2022/11/16 03:34:07;;;;;;;16.43;8.47;;;11.20;83.90;;;;;;5015622;28;20978;-70
2022/11/16 03:36:37;;;;;;;12.67;8.30;;;11.20;84.90;;;;;;5015551;28;20461;-70
2022/11/16 03:39:13;;;;;;;13.83;8.10;;;11.20;84.90;;;;;;5016300;28;20436;-71
2022/11/16 03:41:41;;;;;;;12.87;8.33;;;11.20;86.90;;;;;;5020079;28;20410;-70
2022/11/16 03:44:10;;;;;;;13.67;8.00;;;11.20;83.40;;;;;;5012390;28;20841;-70
2022/11/16 03:46:36;;;;;;;11.90;8.43;;;11.20;86.00;;;;;;5012138;28;20421;-70
2022/11/16 03:49:01;;;;;;;14.57;8.13;;;11.20;88.80;;;;;;5009485;28;20507;-70
2022/11/16 03:51:27;;;;;;;12.10;8.80;;;11.20;90.00;;;;;;5019019;28;20644;-70
2022/11/16 03:53:53;;;;;;;12.90;7.43;;;11.20;89.90;;;;;;5020255;28;20230;-70
2022/11/16 03:56:18;;;;;;;11.63;7.70;;;11.20;89.50;;;;;;5025567;28;20595;-70
2022/11/16 03:58:44;;;;;;;12.77;6.67;;;11.20;90.30;;;;;;5023885;28;20232;-70
2022/11/16 04:01:10;;;;;;;14.70;8.13;;;11.20;90.80;;;;;;5024735;28;20664;-71
2022/11/16 04:03:35;;;;;;;12.87;7.80;;;11.20;90.30;;;;;;5026553;28;20194;-70
2022/11/16 04:25:26;;;;;;;15.20;10.00;;;11.30;92.40;;;;;;5020176;28;20471;-71
2022/11/16 04:38:59;;;;;;;18.33;10.90;;;11.30;94.60;;;;;;5018980;28;20698;-70
2022/11/16 04:44:09;;;;;;;16.37;12.13;;;11.40;94.30;;;;;;4998413;28;20224;-69
2022/11/16 04:49:18;;;;;;;18.07;11.30;;;11.50;96.90;;;;;;4996788;28;20192;-70
2022/11/16 04:51:44;;;;;;;16.50;11.60;;;11.50;95.10;;;;;;5018823;28;20500;-70
2022/11/16 04:54:09;;;;;;;16.67;11.40;;;11.50;96.70;;;;;;5011648;28;20755;-69
2022/11/16 04:56:35;;;;;;;20.80;12.33;;;11.50;96.90;;;;;;5011371;28;20205;-70
2022/11/16 04:59:00;;;;;;;21.10;11.90;;;11.50;95.60;;;;;;5013061;28;20177;-70
2022/11/16 05:04:10;;;;;;;18.10;11.53;;;11.50;95.50;;;;;;5020879;28;20284;-70
2022/11/16 05:06:36;;;;;;;16.67;11.63;;;11.50;95.60;;;;;;5020478;28;20425;-69
2022/11/16 05:09:01;;;;;;;20.33;12.30;;;11.50;96.00;;;;;;5022407;28;20174;-70
2022/11/16 05:11:27;;;;;;;19.27;11.77;;;11.50;99.30;;;;;;5020903;28;20597;-70
2022/11/16 05:13:53;;;;;;;29.63;12.47;;;11.50;96.70;;;;;;5010359;28;20289;-70
2022/11/16 05:16:18;;;;;;;20.77;12.87;;;11.50;99.00;;;;;;4996623;28;20578;-71
2022/11/16 05:18:44;;;;;;;19.50;13.37;;;11.50;99.60;;;;;;5011119;28;20920;-70
2022/11/16 05:21:09;;;;;;;21.03;12.60;;;11.60;99.40;;;;;;5018464;28;20175;-70
2022/11/16 05:26:19;;;;;;;19.03;12.70;;;11.50;98.00;;;;;;5012626;28;20734;-71
2022/11/16 05:28:45;;;;;;;17.67;11.67;;;11.50;97.50;;;;;;5019657;28;20483;-70
2022/11/16 05:31:11;;;;;;;19.07;12.13;;;11.50;96.30;;;;;;5009781;28;20202;-70
2022/11/16 05:33:36;;;;;;;19.90;12.47;;;11.50;97.90;;;;;;5013954;28;20292;-70
2022/11/16 05:36:03;;;;;;;20.90;11.80;;;11.50;99.60;;;;;;5016963;28;20186;-69
2022/11/16 05:38:28;;;;;;;22.70;12.53;;;11.50;99.60;;;;;;5009412;28;20178;-70
2022/11/16 05:40:54;;;;;;;21.87;12.47;;;11.60;98.50;;;;;;5007824;28;20892;-69
2022/11/16 05:43:19;;;;;;;20.90;13.80;;;11.60;98.50;;;;;;5013426;28;20748;-71
2022/11/16 05:45:45;;;;;;;19.30;13.00;;;11.60;99.70;;;;;;5000499;28;20179;-70
2022/11/16 05:48:10;;;;;;;23.23;13.57;;;11.60;99.80;;;;;;5008786;28;20178;-70
2022/11/16 05:50:36;;;;;;;19.23;13.00;;;11.60;97.80;;;;;;5020096;28;20316;-70
2022/11/16 05:53:01;;;;;;;24.00;13.20;;;11.60;99.70;;;;;;5012190;28;20272;-70
2022/11/16 05:55:27;;;;;;;24.13;12.47;;;11.70;99.80;;;;;;5017290;28;20198;-71
2022/11/16 05:57:53;;;;;;;28.53;12.50;;;11.60;99.70;;;;;;5008695;28;20210;-70
2022/11/16 06:00:19;;;;;;;23.73;12.83;;;11.60;99.70;;;;;;5009325;28;20258;-70
2022/11/16 06:02:44;;;;;;;22.97;13.30;;;11.60;96.80;;;;;;5000653;28;20541;-71
2022/11/16 06:05:10;;;;;;;23.13;13.10;;;11.60;99.70;;;;;;5015448;28;20615;-70
2022/11/16 06:07:35;;;;;;;21.93;12.83;;;11.50;98.60;;;;;;5022467;28;20728;-70
2022/11/16 06:10:01;;;;;;;18.40;12.20;;;11.60;97.80;;;;;;5020798;28;20190;-70
2022/11/16 06:12:26;;;;;;;23.33;12.97;;;11.70;98.60;;;;;;5025935;28;20200;-70
2022/11/16 06:14:52;;;;;;;18.97;12.60;;;11.70;99.80;;;;;;5006936;28;20190;-70
2022/11/16 06:17:17;;;;;;;19.17;12.10;;;11.70;99.70;;;;;;5008412;28;20198;-70
2022/11/16 06:19:43;;;;;;;20.70;13.33;;;11.70;98.30;;;;;;5003771;28;20217;-70
2022/11/16 06:22:08;;;;;;;24.63;12.80;;;11.60;98.50;;;;;;5020447;28;20184;-70
2022/11/16 06:24:34;;;;;;;21.43;13.20;;;11.60;99.80;;;;;;5018092;28;20220;-69
2022/11/16 06:26:59;;;;;;;19.13;12.67;;;11.70;99.70;;;;;;5012023;28;20182;-70
2022/11/16 06:29:25;;;;;;;18.53;12.13;;;11.60;97.40;;;;;;5019167;28;20178;-72
2022/11/16 06:31:50;;;;;;;28.50;13.33;;;11.60;96.50;;;;;;5015488;28;20483;-71
2022/11/16 06:34:16;;;;;;;24.97;13.80;;;11.50;97.50;;;;;;5016540;28;20242;-70
2022/11/16 06:36:41;;;;;;;24.30;14.07;;;11.50;99.40;;;;;;5004258;28;20203;-70
2022/11/16 06:39:07;;;;;;;21.50;13.40;;;11.50;99.60;;;;;;5010457;28;20182;-68
2022/11/16 06:41:33;;;;;;;21.53;13.77;;;11.40;99.60;;;;;;5018890;28;20284;-71
2022/11/16 06:43:59;;;;;;;27.60;13.20;;;11.40;98.40;;;;;;5003624;28;20589;-70
2022/11/16 06:46:24;;;;;;;24.40;12.20;;;11.40;99.60;;;;;;5014437;28;20436;-70
2022/11/16 06:48:50;;;;;;;18.00;11.90;;;11.40;99.60;;;;;;5016132;28;20182;-70
2022/11/16 06:51:16;;;;;;;18.87;11.77;;;11.40;99.60;;;;;;5013222;28;20781;-71
2022/11/16 06:53:41;;;;;;;17.23;11.13;;;11.50;98.50;;;;;;5010880;28;20313;-70
2022/11/16 06:56:11;;;;;;;18.23;11.80;;;11.40;97.80;;;;;;5018593;28;20188;-70
2022/11/16 06:58:36;;;;;;;21.60;12.37;;;11.40;99.60;;;;;;5011752;28;20420;-70
2022/11/16 07:01:06;;;;;;;20.00;11.63;;;11.30;99.90;;;;;;5007287;28;20608;-70
2022/11/16 07:03:32;;;;;;;21.03;12.10;;;;;;;;;;5009699;28;20194;-71
2022/11/16 07:05:58;;;;;;;22.20;12.53;;;11.40;98.50;;;;;;5020844;28;21209;-69
2022/11/16 07:08:23;;;;;;;20.03;12.60;;;11.50;99.70;;;;;;5009597;28;20670;-71
2022/11/16 07:10:49;;;;;;;17.20;11.90;;;11.50;99.60;;;;;;5014160;28;20691;-70
2022/11/16 07:13:14;;;;;;;23.83;12.90;;;11.50;95.20;;;;;;5020158;28;20216;-70
2022/11/16 07:15:40;;;;;;;19.70;11.50;;;11.40;97.20;;;;;;5012378;28;20174;-71
2022/11/16 07:18:06;;;;;;;18.13;11.07;;;11.50;97.80;;;;;;5013006;28;20205;-71
2022/11/16 07:20:33;;;;;;;16.40;11.00;;;11.50;96.20;;;;;;5011203;28;20387;-70
2022/11/16 07:23:01;;;;;;;18.20;11.27;;;11.50;98.60;;;;;;4999167;28;20503;-70
2022/11/16 07:25:27;;;;;;;14.60;9.80;;;11.60;96.80;;;;;;5016484;28;20429;-74
2022/11/16 07:27:52;;;;;;;21.80;10.90;;;11.70;99.80;;;;;;5010229;28;20445;-74
2022/11/16 07:30:18;;;;;;;15.20;9.70;;;11.80;99.70;;;;;;5009561;28;20277;-73
2022/11/16 07:32:44;;;;;;;14.80;9.63;;;11.90;95.60;;;;;;5009831;28;20205;-75
2022/11/16 07:35:09;;;;;;;13.00;9.50;;;11.90;94.30;;;;;;5013907;28;20545;-74
2022/11/16 07:37:35;;;;;;;13.27;9.93;;;12.20;87.60;;;;;;5020437;28;20209;-72
2022/11/16 07:40:00;;;;;;;16.83;9.60;;;12.50;68.00;;;;;;5017274;28;20209;-71
2022/11/16 07:42:26;;;;;;;13.47;9.90;;;11.10;62.50;;;;;;5016912;28;20728;-70
2022/11/16 07:44:52;;;;;;;17.43;10.13;;;12.00;68.60;;;;;;5000806;28;20218;-71
2022/11/16 07:47:17;;;;;;;20.30;10.13;;;12.20;72.90;;;;;;5013213;28;20258;-71
2022/11/16 07:49:43;;;;;;;14.70;8.93;;;12.10;74.20;;;;;;5022919;28;20262;-70
2022/11/16 07:52:09;;;;;;;14.90;9.63;;;12.00;68.60;;;;;;5010706;28;20194;-71
2022/11/16 07:54:35;;;;;;;19.30;10.40;;;12.00;71.00;;;;;;5018652;28;20517;-72
2022/11/16 07:57:00;;;;;;;16.73;9.67;;;11.90;71.90;;;;;;5010023;28;20565;-71
2022/11/16 07:59:27;;;;;;;14.10;9.07;;;12.00;74.00;;;;;;5009143;28;20444;-71
2022/11/16 08:01:54;;;;;;;14.50;9.73;;;12.00;74.00;;;;;;5009289;28;20627;-71
2022/11/16 08:04:20;;;;;;;16.53;10.57;;;;;;;;;;5008836;28;20959;-71
2022/11/16 08:06:46;;;;;;;15.33;9.67;;;12.30;70.00;;;;;;5017540;28;20449;-72
2022/11/16 08:09:12;;;;;;;16.83;9.63;;;12.20;64.50;;;;;;5022397;28;20421;-71
2022/11/16 08:11:38;;;;;;;12.90;8.70;;;12.20;59.60;;;;;;5011541;28;20429;-71
2022/11/16 08:14:04;;;;;;;14.00;9.10;;;12.40;60.40;;;;;;5008130;28;20468;-70
2022/11/16 08:16:32;;;;;;;12.07;8.60;;;12.60;58.40;;;;;;5017797;28;20201;-71
2022/11/16 08:18:58;;;;;;;11.27;7.57;;;12.70;48.60;;;;;;5011604;28;20252;-71
2022/11/16 08:21:23;;;;;;;13.07;6.93;;;13.00;40.50;;;;;;5024352;28;20816;-74
2022/11/16 08:23:49;;;;;;;14.17;8.17;;;13.10;38.40;;;;;;5020826;28;20457;-71
2022/11/16 08:26:17;;;;;;;11.80;6.57;;;13.20;38.50;;;;;;5007014;28;20183;-70
2022/11/16 08:28:45;;;;;;;10.50;6.50;;;13.20;40.70;;;;;;5018091;28;20193;-71
2022/11/16 08:31:16;;;;;;;10.73;6.20;;;13.20;36.50;;;;;;5008951;28;20448;-71
2022/11/16 08:33:42;;;;;;;10.20;6.50;;;13.10;40.50;;;;;;5011629;28;20967;-71
2022/11/16 08:36:11;;;;;;;11.93;6.30;;;13.00;40.40;;;;;;5010882;28;20394;-71
2022/11/16 08:38:39;;;;;;;9.80;5.87;;;12.90;30.30;;;;;;5009022;28;20202;-71
2022/11/16 08:41:05;;;;;;;11.10;6.93;;;12.90;40.30;;;;;;5011403;28;20504;-70
2022/11/16 08:43:32;;;;;;;9.53;5.90;;;12.90;33.30;;;;;;5011270;28;20551;-71
2022/11/16 08:45:58;;;;;;;9.73;6.00;;;13.00;34.30;;;;;;5009778;28;20174;-71
2022/11/16 08:48:24;;;;;;;9.40;5.70;;;13.10;37.80;;;;;;5010137;28;20524;-71
2022/11/16 08:50:50;;;;;;;10.90;5.60;;;13.20;28.20;;;;;;5010702;28;20515;-71
2022/11/16 08:53:15;;;;;;;9.60;5.50;;;13.50;26.10;;;;;;5011369;28;20202;-71
2022/11/16 08:55:41;;;;;;;7.50;5.67;;;14.10;16.70;;;;;;5011610;28;20244;-71
2022/11/16 08:58:08;;;;;;;9.90;5.73;;;14.40;11.90;;;;;;5014962;28;20580;-70
2022/11/16 09:00:33;;;;;;;10.90;4.60;;;15.00;4.40;;;;;;5018570;28;20617;-71
2022/11/16 09:02:59;;;;;;;5.63;3.93;;;15.50;1.00;;;;;;5011115;28;20528;-71
2022/11/16 09:05:24;;;;;;;7.80;4.57;;;17.00;1.00;;;;;;5011913;28;20179;-71
2022/11/16 09:07:50;;;;;;;9.40;4.60;;;18.70;1.00;;;;;;5011738;28;20195;-71
2022/11/16 09:10:17;;;;;;;14.37;4.80;;;19.80;1.00;;;;;;5009799;28;20185;-72
2022/11/16 09:12:43;;;;;;;10.07;4.80;;;19.80;1.00;;;;;;5010844;28;20696;-71
2022/11/16 09:15:09;;;;;;;7.30;4.40;;;19.40;1.00;;;;;;5017132;28;20425;-71
2022/11/16 09:17:34;;;;;;;7.40;4.13;;;19.20;1.00;;;;;;5010880;28;20289;-72
2022/11/16 09:20:00;;;;;;;9.70;5.23;;;18.80;1.00;;;;;;5011034;28;20249;-72
2022/11/16 09:22:25;;;;;;;6.87;4.00;;;19.10;1.00;;;;;;5010906;28;20681;-72
2022/11/16 09:24:51;;;;;;;10.77;3.87;;;19.30;1.00;;;;;;5011387;28;20179;-72
2022/11/16 09:27:16;;;;;;;6.70;3.63;;;19.30;1.00;;;;;;5024156;28;20186;-71
2022/11/16 09:29:42;;;;;;;10.23;3.53;;;20.00;1.00;;;;;;5010202;28;20189;-71
2022/11/16 09:32:08;;;;;;;7.47;3.27;;;21.20;1.00;;;;;;5009694;28;20624;-71
2022/11/16 09:34:34;;;;;;;5.77;3.00;;;21.40;1.00;;;;;;5011331;28;20642;-72
2022/11/16 09:37:00;;;;;;;6.83;3.40;;;20.80;1.00;;;;;;5011393;28;20225;-72
2022/11/16 09:39:26;;;;;;;6.30;2.83;;;20.80;1.00;;;;;;5010928;28;20214;-71
2022/11/16 09:42:06;;;;;;;8.27;3.27;;;20.40;1.00;;;;;;5009285;28;20832;-71
2022/11/16 09:44:48;;;;;;;10.70;3.10;;;19.70;1.00;;;;;;4993897;28;20445;-71
2022/11/16 09:47:20;;;;;;;8.73;3.03;;;18.90;1.00;;;;;;5019272;28;20516;-71
2022/11/16 09:49:58;;;;;;;8.17;3.70;;;18.30;1.00;;;;;;5027185;28;20433;-71
2022/11/16 09:52:27;;;;;;;6.43;3.00;;;18.40;1.00;;;;;;5010958;28;20449;-72
2022/11/16 09:54:56;;;;;;;9.20;3.50;;;18.40;1.00;;;;;;5009102;28;20801;-72
2022/11/16 09:57:30;;;;;;;5.07;3.10;;;18.20;1.00;;;;;;5008357;28;20555;-71
2022/11/16 10:00:00;;;;;;;7.47;3.60;;;17.90;1.00;;;;;;5008261;28;20444;-70
2022/11/16 10:02:43;;;;;;;5.20;3.43;;;17.60;1.00;;;;;;5004217;28;20452;-71
2022/11/16 10:05:24;;;;;;;6.10;3.00;;;17.40;1.00;;;;;;5007550;28;20469;-72
2022/11/16 10:07:58;;;;;;;7.40;2.87;;;17.30;1.00;;;;;;5007032;28;20897;-72
2022/11/16 10:10:33;;;;;;;4.43;2.63;;;17.40;1.00;;;;;;5007591;28;20511;-71
2022/11/16 10:13:23;;;;;;;7.83;3.20;;;17.30;1.00;;;;;;5011282;28;20537;-69
2022/11/16 10:16:00;;;;;;;6.80;3.10;;;17.40;1.00;;;;;;5010130;28;20762;-71
2022/11/16 10:18:55;;;;;;;4.30;2.83;;;17.20;1.00;;;;;;5004359;28;20496;-69
2022/11/16 10:22:00;;;;;;;8.83;2.80;;;16.80;1.00;;;;;;5000129;28;20974;-71
2022/11/16 10:24:32;;;;;;;9.53;2.90;;;16.80;1.00;;;;;;5017572;28;20447;-71
2022/11/16 10:27:27;;;;;;;5.73;2.60;;;17.00;1.00;;;;;;5008454;28;20433;-71
2022/11/16 10:30:11;;;;;;;4.50;2.40;;;17.20;1.00;;;;;;4969085;28;20885;-70
2022/11/16 10:32:46;;;;;;;5.33;2.53;;;17.30;1.00;;;;;;4994692;28;20997;-70
2022/11/16 10:35:11;;;;;;;4.40;2.50;;;17.50;1.00;;;;;;5000964;28;20471;-71
2022/11/16 10:37:44;;;;;;;5.10;2.60;;;17.60;1.00;;;;;;5013767;28;20465;-72
2022/11/16 10:40:19;;;;;;;6.50;3.20;;;18.10;1.00;;;;;;5005691;28;20229;-72
2022/11/16 10:43:04;;;;;;;5.40;2.80;;;18.80;1.00;;;;;;5010935;28;20883;-70
2022/11/16 10:45:58;;;;;;;7.00;2.63;;;20.30;1.00;;;;;;5011470;28;20433;-71
2022/11/16 10:48:36;;;;;;;4.67;2.50;;;22.20;1.00;;;;;;5008846;28;20421;-72
2022/11/16 10:51:03;;;;;;;6.63;2.50;;;22.60;1.00;;;;;;5014473;28;20436;-71
2022/11/16 10:53:34;;;;;;;5.73;2.60;;;21.00;1.00;;;;;;5008267;28;20757;-72
2022/11/16 10:56:29;;;;;;;6.93;2.90;;;19.50;1.00;;;;;;5014887;28;20998;-72
2022/11/16 10:59:00;;;;;;;7.33;2.70;;;18.60;1.00;;;;;;5004730;28;20496;-72
2022/11/16 11:01:53;;;;;;;9.10;3.50;;;19.90;1.00;;;;;;5004279;28;20512;-71
2022/11/16 11:04:23;;;;;;;6.53;2.43;;;21.50;1.00;;;;;;5006868;28;20442;-72
2022/11/16 11:06:51;;;;;;;5.53;2.63;;;21.90;1.00;;;;;;5010316;28;20503;-72
2022/11/16 11:09:35;;;;;;;5.90;2.20;;;21.40;1.00;;;;;;5013149;28;20511;-72
2022/11/16 11:15:01;;;;;;;12.03;2.47;;;21.60;1.00;;;;;;5002478;28;20458;-72
2022/11/16 11:17:28;;;;;;;7.07;2.50;;;22.90;1.00;;;;;;5002658;28;21071;-72
2022/11/16 11:20:16;;;;;;;11.07;2.63;;;22.10;1.00;;;;;;5009617;28;20465;-71
2022/11/16 11:22:50;;;;;;;6.70;2.47;;;20.80;1.00;;;;;;5019549;28;20835;-72
2022/11/16 11:25:23;;;;;;;6.60;2.20;;;21.00;1.00;;;;;;5011279;28;20499;-70
2022/11/16 11:27:51;;;;;;;6.80;2.37;;;21.20;1.00;;;;;;5010818;28;20444;-73
2022/11/16 11:30:21;;;;;;;6.97;2.30;;;21.10;1.00;;;;;;5008600;28;20468;-72
2022/11/16 11:32:47;;;;;;;5.90;2.30;;;21.10;1.00;;;;;;5013408;28;20817;-69
2022/11/16 11:35:25;;;;;;;5.67;2.50;;;22.20;1.00;;;;;;5007335;28;20968;-72
2022/11/16 11:37:53;;;;;;;7.17;2.43;;;19.70;1.00;;;;;;5003569;28;20976;-71
2022/11/16 11:40:28;;;;;;;5.30;2.80;;;19.10;1.00;;;;;;5006140;28;20429;-72
2022/11/16 11:43:03;;;;;;;4.97;2.23;;;18.90;1.00;;;;;;5009779;28;20520;-71
2022/11/16 11:45:45;;;;;;;7.90;3.17;;;19.90;1.00;;;;;;5026691;22;20417;-73
2022/11/16 11:48:41;;;;;;;5.93;2.27;;;20.00;1.00;;;;;;5028790;28;20462;-71
2022/11/16 11:51:21;;;;;;;5.03;2.60;;;19.40;1.00;;;;;;5026956;28;20429;-73
2022/11/16 11:53:57;;;;;;;4.77;2.40;;;18.50;1.00;;;;;;5027590;28;20408;-71
2022/11/16 11:56:24;;;;;;;6.90;2.90;;;19.60;1.00;;;;;;5043693;28;20435;-71
2022/11/16 11:58:50;;;;;;;6.20;2.67;;;20.10;1.00;;;;;;5049728;28;20942;-71
2022/11/16 12:01:39;;;;;;;8.33;3.03;;;19.90;1.00;;;;;;5034803;28;20416;-71
2022/11/16 12:04:27;;;;;;;4.17;2.50;;;19.20;1.00;;;;;;5048181;28;20447;-71
2022/11/16 12:07:27;;;;;;;4.97;2.60;;;19.00;1.00;;;;;;5044651;28;20432;-72
2022/11/16 12:10:31;;;;;;;5.07;2.43;;;18.40;1.00;;;;;;4985550;28;20440;-71
2022/11/16 12:13:20;;;;;;;5.17;2.50;;;17.40;1.00;;;;;;4981532;28;20465;-72
2022/11/16 12:16:36;;;;;;;4.43;2.30;;;17.10;1.00;;;;;;5045220;28;20454;-71
2022/11/16 12:19:24;;;;;;;7.30;2.80;;;17.30;1.00;;;;;;5036707;28;20432;-70
2022/11/16 12:22:19;;;;;;;4.70;2.17;;;17.60;1.00;;;;;;5046336;28;20431;-70
2022/11/16 12:25:06;;;;;;;5.40;2.63;;;17.40;1.00;;;;;;5046822;28;20423;-71
2022/11/16 12:28:07;;;;;;;5.80;2.40;;;17.70;1.00;;;;;;5048830;28;20843;-70
2022/11/16 12:30:39;;;;;;;4.90;2.50;;;17.70;1.00;;;;;;5039808;28;20487;-70
2022/11/16 12:33:23;;;;;;;4.57;2.30;;;17.50;1.00;;;;;;5047497;28;20416;-72
2022/11/16 12:36:09;;;;;;;4.40;2.10;;;18.00;1.00;;;;;;5042278;28;20505;-70
2022/11/16 12:38:58;;;;;;;5.80;4.27;;;20.60;1.00;;;;;;5043442;28;20486;-72
2022/11/16 12:41:48;;;;;;;5.93;2.70;;;22.90;1.00;;;;;;5038389;28;20443;-72
2022/11/16 12:44:26;;;;;;;6.77;2.30;;;23.70;1.00;;;;;;5045307;28;20498;-71
2022/11/16 12:47:22;;;;;;;9.70;2.33;;;23.80;1.00;;;;;;5042936;28;20455;-71
2022/11/16 12:50:02;;;;;;;6.67;2.40;;;22.60;1.00;;;;;;5033897;28;20443;-72
2022/11/16 12:52:40;;;;;;;14.70;3.03;;;21.40;1.00;;;;;;5033238;28;20446;-71
2022/11/16 12:55:24;;;;;;;7.93;3.03;;;20.60;1.00;;;;;;5049771;28;20928;-71
2022/11/16 12:58:10;;;;;;;6.77;2.10;;;20.40;1.00;;;;;;5038121;28;20506;-71
2022/11/16 13:01:10;;;;;;;6.67;2.03;;;20.70;1.00;;;;;;5047698;28;20435;-72
2022/11/16 13:03:51;;;;;;;5.17;2.10;;;20.40;1.00;;;;;;5050680;28;20423;-70
2022/11/16 13:06:29;;;;;;;7.40;2.53;;;20.00;1.00;;;;;;5040282;28;20433;-72
2022/11/16 13:09:14;;;;;;;5.80;2.20;;;19.90;1.00;;;;;;5050214;28;20428;-71
2022/11/16 13:11:47;;;;;;;3.97;2.10;;;19.90;1.00;;;;;;5043455;28;20503;-73
2022/11/16 13:14:20;;;;;;;4.00;1.77;;;19.50;1.00;;;;;;5043900;28;20455;-69
2022/11/16 13:16:48;;;;;;;4.80;1.97;;;18.70;1.00;;;;;;5048963;28;20467;-72
2022/11/16 13:19:15;;;;;;;5.63;2.03;;;18.20;1.00;;;;;;5050357;28;20451;-71
2022/11/16 13:21:48;;;;;;;5.00;1.93;;;18.00;1.00;;;;;;5046280;28;20542;-71
2022/11/16 13:24:43;;;;;;;6.33;1.70;;;17.70;1.00;;;;;;5043447;28;20534;-71
2022/11/16 13:27:23;;;;;;;5.20;1.90;;;17.50;1.00;;;;;;5034674;28;20455;-71
2022/11/16 13:30:04;;;;;;;4.30;1.70;;;17.30;1.00;;;;;;5041706;28;20940;-70
2022/11/16 13:32:33;;;;;;;4.80;1.47;;;17.00;1.00;;;;;;5049536;28;20957;-71
2022/11/16 13:35:02;;;;;;;4.93;1.90;;;16.80;1.00;;;;;;5039700;28;20463;-73
2022/11/16 13:37:37;;;;;;;4.80;1.73;;;16.50;1.00;;;;;;5047085;28;20459;-70
2022/11/16 13:40:05;;;;;;;4.80;1.67;;;16.50;1.00;;;;;;5040377;28;20442;-71
2022/11/16 13:42:33;;;;;;;4.20;1.80;;;16.60;1.00;;;;;;5047133;28;20503;-70
2022/11/16 13:45:20;;;;;;;3.80;1.60;;;17.00;1.00;;;;;;5045016;28;20455;-71
2022/11/16 13:47:52;;;;;;;4.63;1.40;;;17.00;1.00;;;;;;5031753;28;20519;-69
2022/11/16 13:50:39;;;;;;;2.20;1.60;;;16.90;1.00;;;;;;5040119;28;20413;-71
2022/11/16 13:53:11;;;;;;;4.27;1.40;;;19.10;1.00;;;;;;5031805;28;20429;-71
2022/11/16 13:55:43;;;;;;;3.60;1.70;;;16.70;1.00;;;;;;5040773;28;20497;-71